Time;durP1;ratioP1;P1;durP2;ratioP2;P2;SDS_P1;SDS_P2;PMS_P1;PMS_P2;Temp;Humidity;BMP_temperature;BMP_pressure;BME280_temperature;BME280_humidity;BME280_pressure;Samples;Min_cycle;Max_cycle;Signal;HPM_P1;HPM_P2
2023/08/19 00:01:46;;;;;;;7.43;4.40;;;;;;;26.74;54.01;99649.34;5035158;28;20133;-76
2023/08/19 00:04:12;;;;;;;7.97;4.43;;;;;;;26.72;54.40;99654.13;5032607;28;20682;-80
2023/08/19 00:06:40;;;;;;;5.78;4.00;;;;;;;26.70;54.40;99654.31;5033721;28;20450;-78
2023/08/19 00:09:08;;;;;;;5.15;4.15;;;;;;;26.69;54.19;99658.03;5033853;28;20046;-79
2023/08/19 00:11:37;;;;;;;8.48;4.50;;;;;;;26.66;54.29;99651.16;5037571;28;20044;-80
2023/08/19 00:14:05;;;;;;;4.10;3.53;;;;;;;26.65;54.37;99654.88;5052549;28;20048;-78
2023/08/19 00:16:33;;;;;;;5.82;3.70;;;;;;;26.63;54.21;99646.16;5053448;28;20045;-76
2023/08/19 00:19:00;;;;;;;7.45;4.28;;;;;;;26.62;54.35;99646.34;5052018;28;20049;-81
2023/08/19 00:21:27;;;;;;;4.80;4.00;;;;;;;26.60;54.02;99637.59;5051896;28;20081;-76
2023/08/19 00:23:54;;;;;;;8.48;4.03;;;;;;;26.59;54.25;99635.94;5040277;28;20054;-80
2023/08/19 00:26:21;;;;;;;6.28;4.60;;;;;;;26.58;54.31;99634.28;5033727;28;20045;-77
2023/08/19 00:28:47;;;;;;;9.23;4.40;;;;;;;26.57;54.59;99628.03;5033360;28;20042;-76
2023/08/19 00:31:14;;;;;;;6.47;4.05;;;;;;;26.56;54.58;99626.38;5037709;28;20118;-77
2023/08/19 00:33:40;;;;;;;4.63;3.80;;;;;;;26.55;54.43;99619.31;5044732;28;20049;-79
2023/08/19 00:36:07;;;;;;;5.45;3.90;;;;;;;26.54;54.50;99610.38;5043993;28;20055;-77
2023/08/19 00:38:33;;;;;;;8.00;4.32;;;;;;;26.55;54.49;99622.00;5053231;28;20041;-76
2023/08/19 00:41:02;;;;;;;5.43;4.25;;;;;;;26.54;54.74;99621.16;5045550;28;20052;-78
2023/08/19 00:43:30;;;;;;;5.85;4.10;;;;;;;26.56;54.48;99615.56;5032841;28;20053;-80
2023/08/19 00:45:57;;;;;;;5.07;3.78;;;;;;;26.54;54.26;99613.06;5033129;28;20037;-78
2023/08/19 00:48:25;;;;;;;5.22;3.63;;;;;;;26.53;54.27;99615.97;5033066;28;20091;-77
2023/08/19 00:50:53;;;;;;;7.43;3.58;;;;;;;26.52;54.45;99614.31;5036323;28;20053;-78
2023/08/19 00:53:20;;;;;;;5.95;3.50;;;;;;;26.51;54.13;99612.63;5045228;28;20046;-83
2023/08/19 00:55:47;;;;;;;5.22;3.83;;;;;;;26.49;54.20;99604.72;5033219;28;20056;-79
2023/08/19 00:58:13;;;;;;;5.32;3.55;;;;;;;26.48;54.24;99603.06;5033016;28;20450;-78
2023/08/19 01:00:41;;;;;;;7.05;3.50;;;;;;;26.47;54.37;99605.97;5032934;28;20517;-77
2023/08/19 01:03:07;;;;;;;6.95;3.20;;;;;;;26.44;54.25;99601.78;5050915;28;20079;-77
2023/08/19 01:05:59;;;;;;;6.57;3.33;;;;;;;26.37;54.17;99601.75;5053024;28;20052;-76
2023/08/19 01:08:38;;;;;;;3.92;3.42;;;;;;;26.38;54.10;99603.41;5052671;28;20137;-77
2023/08/19 01:11:39;;;;;;;6.07;3.53;;;;;;;26.34;54.30;99610.22;5051451;28;20133;-76
2023/08/19 01:14:10;;;;;;;4.20;3.38;;;;;;;26.37;54.31;99607.13;5032712;28;20037;-77
2023/08/19 01:16:40;;;;;;;4.43;3.03;;;;;;;26.35;54.35;99601.09;5032854;28;20132;-78
2023/08/19 01:19:17;;;;;;;6.15;3.63;;;;;;;26.34;54.11;99604.81;5031239;28;20055;-77
2023/08/19 01:21:45;;;;;;;5.53;3.58;;;;;;;26.33;54.27;99608.56;5031995;28;20045;-77
2023/08/19 01:24:14;;;;;;;4.75;3.63;;;;;;;26.32;54.29;99603.34;5032814;28;20096;-80
2023/08/19 01:26:40;;;;;;;6.03;3.53;;;;;;;26.30;54.07;99600.84;5033515;28;20049;-77
2023/08/19 01:29:07;;;;;;;4.57;3.60;;;;;;;26.28;54.27;99611.00;5032267;28;20048;-78
2023/08/19 01:31:33;;;;;;;5.07;3.47;;;;;;;26.26;54.50;99607.66;5032432;28;20124;-77
2023/08/19 01:34:00;;;;;;;8.68;3.75;;;;;;;26.24;54.39;99601.59;5049048;28;20037;-81
2023/08/19 01:36:39;;;;;;;5.07;3.50;;;;;;;26.21;54.55;99599.28;5052378;28;20429;-77
2023/08/19 01:39:10;;;;;;;8.32;3.75;;;;;;;26.21;54.34;99607.38;5051974;28;20726;-76
2023/08/19 01:41:37;;;;;;;7.15;3.63;;;;;;;26.20;54.50;99608.41;5052263;28;20044;-77
2023/08/19 01:44:05;;;;;;;5.53;3.83;;;;;;;26.19;54.51;99612.97;5035713;28;20069;-77
2023/08/19 01:46:31;;;;;;;6.05;3.60;;;;;;;26.18;54.30;99611.31;5030679;28;20107;-78
2023/08/19 01:48:58;;;;;;;3.83;3.30;;;;;;;26.16;54.48;99607.94;5031921;28;20130;-79
2023/08/19 01:51:25;;;;;;;4.70;3.97;;;;;;;26.14;54.35;99607.31;5030860;28;20107;-78
2023/08/19 01:53:52;;;;;;;5.13;3.53;;;;;;;26.13;54.54;99608.38;5041967;28;20040;-77
2023/08/19 01:56:18;;;;;;;5.60;3.58;;;;;;;26.11;54.32;99608.56;5036762;28;20063;-79
2023/08/19 01:58:45;;;;;;;4.65;3.42;;;;;;;26.10;54.62;99612.28;5047152;28;20052;-77
2023/08/19 02:01:12;;;;;;;5.07;3.42;;;;;;;26.09;54.50;99613.28;5050356;28;20041;-76
2023/08/19 02:03:39;;;;;;;5.20;3.88;;;;;;;26.07;54.74;99614.50;5045773;28;20056;-77
2023/08/19 02:06:06;;;;;;;4.15;3.35;;;;;;;26.06;54.47;99610.16;5030552;28;20056;-77
2023/08/19 02:08:32;;;;;;;3.33;3.03;;;;;;;26.05;54.42;99608.50;5030262;28;20077;-79
2023/08/19 02:10:59;;;;;;;5.40;3.25;;;;;;;26.02;54.61;99610.53;5031621;28;20501;-77
2023/08/19 02:13:25;;;;;;;3.67;3.33;;;;;;;26.01;54.67;99608.03;5030950;28;20054;-78
2023/08/19 02:15:52;;;;;;;5.07;2.67;;;;;;;26.00;54.54;99609.91;5035453;28;20572;-76
2023/08/19 02:18:22;;;;;;;4.75;3.70;;;;;;;25.97;54.71;99610.28;5051376;28;20037;-76
2023/08/19 02:20:48;;;;;;;4.55;3.15;;;;;;;25.96;54.21;99608.63;5051492;28;20056;-77
2023/08/19 02:23:15;;;;;;;4.18;3.17;;;;;;;25.95;54.85;99608.81;5049983;28;20049;-81
2023/08/19 02:25:41;;;;;;;8.68;3.53;;;;;;;25.93;54.79;99610.88;5051212;28;20519;-80
2023/08/19 02:28:08;;;;;;;5.18;3.42;;;;;;;25.90;54.82;99609.38;5032281;28;20551;-78
2023/08/19 02:30:34;;;;;;;4.40;3.08;;;;;;;25.90;54.91;99617.47;5031141;28;20041;-77
2023/08/19 02:33:05;;;;;;;6.80;3.28;;;;;;;25.85;54.91;99615.34;5031325;28;20136;-81
2023/08/19 02:35:32;;;;;;;6.88;3.20;;;;;;;25.86;55.16;99614.31;5031699;28;20045;-77
2023/08/19 02:37:59;;;;;;;3.92;2.78;;;;;;;25.85;55.18;99612.66;5031175;28;20375;-76
2023/08/19 02:40:27;;;;;;;4.68;3.00;;;;;;;25.84;54.79;99611.00;5030928;28;20072;-78
2023/08/19 02:42:54;;;;;;;4.82;3.30;;;;;;;25.83;55.18;99614.69;5031067;28;20132;-76
2023/08/19 02:45:21;;;;;;;6.30;3.30;;;;;;;25.82;54.98;99617.59;5047077;28;20045;-80
2023/08/19 02:47:47;;;;;;;5.72;3.30;;;;;;;25.81;55.06;99614.06;5050982;28;20048;-79
2023/08/19 02:50:13;;;;;;;3.15;2.88;;;;;;;25.79;54.91;99610.72;5049538;28;20362;-77
2023/08/19 02:52:40;;;;;;;7.93;3.25;;;;;;;25.80;54.87;99606.16;5050831;28;20052;-77
2023/08/19 02:55:07;;;;;;;3.47;3.03;;;;;;;25.79;55.00;99612.59;5045698;28;20037;-78
2023/08/19 02:57:33;;;;;;;5.75;2.80;;;;;;;25.76;54.72;99611.94;5029728;28;20042;-81
2023/08/19 03:00:00;;;;;;;6.03;2.90;;;;;;;25.75;54.74;99610.28;5043048;28;20592;-77
2023/08/19 03:02:26;;;;;;;4.85;2.88;;;;;;;25.73;54.88;99598.84;5050878;28;20128;-77
2023/08/19 03:04:53;;;;;;;3.40;2.88;;;;;;;25.72;54.76;99599.84;5050808;28;20053;-78
2023/08/19 03:07:19;;;;;;;4.43;2.97;;;;;;;25.72;54.98;99599.03;5050476;28;20063;-77
2023/08/19 03:09:46;;;;;;;5.20;2.97;;;;;;;25.72;54.72;99599.03;5042687;28;20417;-79
2023/08/19 03:12:12;;;;;;;5.18;3.22;;;;;;;25.72;55.04;99604.44;5030931;28;20049;-78
2023/08/19 03:14:39;;;;;;;3.95;2.97;;;;;;;25.72;55.15;99593.66;5030567;28;20482;-78
2023/08/19 03:17:05;;;;;;;4.10;2.92;;;;;;;25.71;54.79;99598.19;5030634;28;20477;-76
2023/08/19 03:19:32;;;;;;;3.50;2.67;;;;;;;25.71;54.79;99598.19;5030688;28;20500;-77
2023/08/19 03:21:58;;;;;;;4.15;2.65;;;;;;;25.71;55.04;99598.19;5040776;28;20135;-78
2023/08/19 03:24:25;;;;;;;5.45;2.88;;;;;;;25.72;54.88;99590.97;5036714;28;20166;-80
2023/08/19 03:26:51;;;;;;;5.90;2.80;;;;;;;25.72;54.99;99588.25;5029473;28;20141;-79
2023/08/19 03:29:18;;;;;;;3.33;2.63;;;;;;;25.73;54.95;99584.53;5032372;28;20072;-76
2023/08/19 03:31:44;;;;;;;4.65;2.67;;;;;;;25.72;54.84;99572.91;5050624;28;20115;-77
2023/08/19 03:34:10;;;;;;;8.35;3.10;;;;;;;25.74;55.38;99572.72;5049115;28;20057;-76
2023/08/19 03:36:37;;;;;;;6.05;3.10;;;;;;;25.74;54.88;99564.63;5050418;28;20044;-77
2023/08/19 03:39:04;;;;;;;9.18;2.78;;;;;;;25.74;54.84;99570.03;5048781;28;20123;-81
2023/08/19 03:41:30;;;;;;;3.65;2.70;;;;;;;25.76;54.99;99573.38;5031285;28;20462;-80
2023/08/19 03:43:57;;;;;;;2.78;2.47;;;;;;;25.74;54.78;99572.72;5030628;28;20060;-77
2023/08/19 03:46:23;;;;;;;5.20;3.05;;;;;;;25.72;54.53;99559.44;5030469;28;20049;-78
2023/08/19 03:48:50;;;;;;;3.33;2.55;;;;;;;25.73;54.62;99558.41;5030405;28;20489;-78
2023/08/19 03:51:16;;;;;;;4.18;2.78;;;;;;;25.70;54.96;99566.88;5030655;28;20490;-78
2023/08/19 03:53:42;;;;;;;4.55;2.67;;;;;;;25.70;54.48;99561.50;5030295;28;20067;-79
2023/08/19 03:56:09;;;;;;;5.28;2.70;;;;;;;25.69;54.35;99561.69;5030552;28;20045;-77
2023/08/19 03:58:35;;;;;;;2.70;2.50;;;;;;;25.68;54.34;99560.03;5029137;28;20746;-78
2023/08/19 04:01:06;;;;;;;4.65;2.67;;;;;;;25.66;54.78;99570.13;5038535;28;20114;-77
2023/08/19 04:03:33;;;;;;;4.65;2.80;;;;;;;25.66;54.47;99568.28;5049337;28;20055;-77
2023/08/19 04:06:00;;;;;;;4.55;2.50;;;;;;;25.66;54.76;99570.13;5050301;28;20064;-77
2023/08/19 04:08:26;;;;;;;3.47;2.33;;;;;;;25.64;54.57;99575.72;5050410;28;20449;-77
2023/08/19 04:10:53;;;;;;;3.83;2.55;;;;;;;25.61;54.48;99576.94;5045821;28;20053;-77
2023/08/19 04:13:19;;;;;;;5.18;2.65;;;;;;;25.61;54.32;99573.44;5030359;28;20136;-77
2023/08/19 04:15:46;;;;;;;6.80;2.60;;;;;;;25.59;54.81;99565.53;5030369;28;20049;-80
2023/08/19 04:18:12;;;;;;;5.30;2.72;;;;;;;25.59;54.39;99573.63;5031347;28;20045;-79
2023/08/19 04:20:39;;;;;;;4.72;2.88;;;;;;;25.56;54.76;99568.59;5033875;28;20045;-80
2023/08/19 04:23:06;;;;;;;3.70;3.00;;;;;;;25.55;54.66;99568.75;5052485;28;20144;-77
2023/08/19 04:25:32;;;;;;;4.18;2.80;;;;;;;25.54;54.64;99575.19;5053892;28;20139;-82
2023/08/19 04:27:59;;;;;;;3.42;2.72;;;;;;;25.52;54.77;99572.66;5053683;28;20055;-77
2023/08/19 04:30:25;;;;;;;5.68;3.10;;;;;;;25.50;55.20;99572.84;5052377;28;20076;-77
2023/08/19 04:32:52;;;;;;;5.78;2.80;;;;;;;25.49;55.00;99568.50;5039178;28;20044;-77
2023/08/19 04:35:19;;;;;;;3.83;2.63;;;;;;;25.47;54.97;99575.09;5052364;28;20048;-77
2023/08/19 04:37:45;;;;;;;5.55;3.08;;;;;;;25.47;54.95;99564.31;5052385;28;20418;-81
2023/08/19 04:40:12;;;;;;;6.20;3.38;;;;;;;25.45;55.04;99569.09;5053452;28;20083;-78
2023/08/19 04:42:38;;;;;;;5.32;2.83;;;;;;;25.45;55.02;99561.00;5042959;28;20129;-79
2023/08/19 04:45:06;;;;;;;4.60;3.15;;;;;;;25.43;55.17;99561.19;5047146;28;20041;-77
2023/08/19 04:47:33;;;;;;;6.05;2.90;;;;;;;25.42;54.71;99564.88;5123807;22;20051;-85
2023/08/19 04:50:08;;;;;;;4.15;2.75;;;;;;;25.44;55.08;99568.25;5054364;28;20049;-84
2023/08/19 04:52:35;;;;;;;4.33;2.93;;;;;;;25.44;55.31;99564.69;5054268;28;20135;-84
2023/08/19 04:55:04;;;;;;;4.82;3.08;;;;;;;25.45;55.38;99566.38;5035029;28;20136;-84
2023/08/19 04:57:30;;;;;;;4.60;2.72;;;;;;;25.46;55.26;99568.88;5033323;28;20050;-84
2023/08/19 04:59:57;;;;;;;6.70;2.70;;;;;;;25.48;54.87;99571.38;5034224;28;20448;-84
2023/08/19 05:02:24;;;;;;;5.95;2.72;;;;;;;25.49;55.17;99578.47;5043492;28;20132;-84
2023/08/19 05:04:50;;;;;;;4.25;2.60;;;;;;;25.50;55.41;99572.03;5053310;28;20079;-84
2023/08/19 05:07:19;;;;;;;3.80;2.55;;;;;;;25.51;55.00;99573.69;5053746;28;20049;-84
2023/08/19 05:09:46;;;;;;;5.93;3.00;;;;;;;25.52;55.29;99580.75;5054301;28;20140;-84
2023/08/19 05:12:13;;;;;;;2.88;2.60;;;;;;;25.54;55.36;99575.19;5053876;28;20053;-84
2023/08/19 05:14:40;;;;;;;6.68;2.60;;;;;;;25.55;55.23;99577.69;5053975;28;20059;-84
2023/08/19 05:17:07;;;;;;;5.45;2.35;;;;;;;25.57;55.13;99577.53;5054405;28;20056;-85
2023/08/19 05:19:35;;;;;;;4.70;3.05;;;;;;;25.57;55.22;99575.66;5054153;28;20045;-84
2023/08/19 05:22:02;;;;;;;3.03;2.50;;;;;;;25.57;55.46;99578.34;5053037;28;20056;-84
2023/08/19 05:24:28;;;;;;;5.63;2.90;;;;;;;25.59;55.39;99578.16;5053092;28;20135;-84
2023/08/19 05:26:55;;;;;;;3.33;2.88;;;;;;;25.61;55.13;99586.91;5053330;28;20049;-84
2023/08/19 05:29:22;;;;;;;4.03;2.72;;;;;;;25.63;55.24;99583.00;5052125;28;20488;-84
2023/08/19 05:31:48;;;;;;;5.45;2.72;;;;;;;25.65;55.45;99574.72;5053540;28;20049;-84
2023/08/19 05:34:15;;;;;;;4.25;2.90;;;;;;;25.68;55.27;99578.88;5053633;28;20497;-84
2023/08/19 05:36:41;;;;;;;5.40;3.08;;;;;;;25.71;55.65;99579.34;5053856;28;20130;-84
2023/08/19 05:39:08;;;;;;;3.50;2.92;;;;;;;25.75;55.92;99577.06;5053959;28;20106;-84
2023/08/19 05:41:34;;;;;;;3.75;2.78;;;;;;;25.78;55.92;99579.41;5054079;28;20045;-84
2023/08/19 05:44:01;;;;;;;4.90;3.00;;;;;;;25.83;55.62;99579.66;5052944;28;20041;-84
2023/08/19 05:46:28;;;;;;;5.57;3.13;;;;;;;25.88;55.73;99577.22;5053574;28;20076;-84
2023/08/19 05:48:54;;;;;;;4.40;2.67;;;;;;;25.93;55.81;99579.34;5053131;28;20072;-84
2023/08/19 05:51:21;;;;;;;4.18;2.70;;;;;;;26.00;56.10;99574.00;5053607;28;20049;-85
2023/08/19 05:53:47;;;;;;;3.25;2.88;;;;;;;26.06;55.73;99575.94;5053865;28;20052;-84
2023/08/19 05:56:14;;;;;;;3.88;2.75;;;;;;;26.14;56.54;99574.97;5053717;28;20140;-84
2023/08/19 05:58:43;;;;;;;4.28;2.80;;;;;;;26.21;55.82;99578.56;5051832;28;20056;-85
2023/08/19 06:01:09;;;;;;;6.00;3.00;;;;;;;26.28;55.43;99586.72;5052760;28;20132;-84
2023/08/19 06:03:36;;;;;;;4.68;2.67;;;;;;;26.33;55.02;99584.28;5051003;28;20052;-84
2023/08/19 06:06:05;;;;;;;3.53;3.22;;;;;;;26.40;55.44;99589.72;5050763;28;20060;-84
2023/08/19 06:08:32;;;;;;;5.18;2.80;;;;;;;26.48;54.95;99594.13;5051061;28;20072;-84
2023/08/19 06:11:06;;;;;;;4.70;2.80;;;;;;;26.54;55.07;99587.97;5052426;28;20052;-85
2023/08/19 06:13:47;;;;;;;5.45;3.08;;;;;;;26.61;55.14;99586.13;5052592;28;20172;-84
2023/08/19 06:16:13;;;;;;;4.43;2.95;;;;;;;26.64;54.41;99588.44;5053374;28;20075;-84
2023/08/19 06:18:41;;;;;;;3.75;3.08;;;;;;;26.72;54.77;99589.31;5052794;28;20053;-85
2023/08/19 06:21:07;;;;;;;5.00;2.80;;;;;;;26.75;55.16;99586.19;5053333;28;20052;-85
2023/08/19 06:23:34;;;;;;;3.25;2.53;;;;;;;26.78;54.54;99597.47;5051628;28;20049;-84
2023/08/19 06:26:01;;;;;;;3.00;2.65;;;;;;;26.82;54.21;99600.59;5053003;28;20566;-84
2023/08/19 06:28:27;;;;;;;3.15;2.80;;;;;;;26.87;54.82;99594.59;5052861;28;20085;-84
2023/08/19 06:30:54;;;;;;;4.68;3.25;;;;;;;26.91;55.15;99590.47;5053320;28;20128;-84
2023/08/19 06:33:21;;;;;;;3.90;2.92;;;;;;;26.93;54.72;99583.84;5052796;28;20495;-84
2023/08/19 06:35:49;;;;;;;3.50;2.88;;;;;;;26.97;54.99;99592.41;5052518;28;20060;-85
2023/08/19 06:38:20;;;;;;;7.43;2.97;;;;;;;26.99;54.92;99597.59;5052412;28;20633;-84
2023/08/19 06:40:58;;;;;;;3.38;3.08;;;;;;;27.01;55.63;99596.38;5052540;28;20136;-84
2023/08/19 06:43:26;;;;;;;3.00;2.70;;;;;;;27.09;54.50;99598.06;5052756;28;20052;-85
2023/08/19 06:45:56;;;;;;;6.20;2.47;;;;;;;27.12;55.19;99596.81;5051513;28;20486;-84
2023/08/19 06:48:24;;;;;;;3.40;2.70;;;;;;;27.17;55.00;99592.47;5051343;28;20064;-84
2023/08/19 06:50:52;;;;;;;3.50;3.10;;;;;;;27.21;54.49;99586.69;5051695;28;20049;-85
2023/08/19 06:53:22;;;;;;;3.47;2.75;;;;;;;27.25;54.44;99596.06;5052644;28;20096;-85
2023/08/19 06:56:25;;;;;;;4.95;2.85;;;;;;;27.25;54.27;99599.56;5052729;28;20142;-85
2023/08/19 06:58:54;;;;;;;5.72;2.60;;;;;;;27.35;54.67;99601.91;5052205;28;20107;-84
2023/08/19 07:01:27;;;;;;;5.43;2.47;;;;;;;27.38;54.57;99597.97;5052512;28;20059;-84
2023/08/19 07:03:55;;;;;;;4.30;2.58;;;;;;;27.45;54.51;99610.50;5052527;28;20146;-84
2023/08/19 07:06:22;;;;;;;6.10;2.75;;;;;;;27.53;54.95;99614.88;5052305;28;20061;-84
2023/08/19 07:08:51;;;;;;;3.78;2.58;;;;;;;27.61;53.87;99607.63;5052299;28;20099;-85
2023/08/19 07:11:18;;;;;;;4.88;2.53;;;;;;;27.69;54.15;99613.69;5051013;28;20140;-85
2023/08/19 07:13:45;;;;;;;2.40;2.15;;;;;;;27.78;54.17;99621.63;5051881;28;20564;-84
2023/08/19 07:16:16;;;;;;;5.70;2.53;;;;;;;27.86;53.60;99624.13;5051107;28;20049;-85
2023/08/19 07:18:53;;;;;;;2.95;2.60;;;;;;;27.89;53.05;99623.72;5052073;28;20099;-85
2023/08/19 07:21:23;;;;;;;5.65;2.30;;;;;;;27.99;53.07;99626.00;5052351;28;20052;-85
2023/08/19 07:23:53;;;;;;;3.20;2.78;;;;;;;28.04;53.14;99625.41;5052017;28;20564;-84
2023/08/19 07:26:25;;;;;;;6.65;2.95;;;;;;;28.07;53.60;99631.22;5050642;28;20048;-85
2023/08/19 07:28:52;;;;;;;3.90;2.53;;;;;;;28.15;52.97;99630.22;5051465;28;20081;-84
2023/08/19 07:31:22;;;;;;;6.97;2.90;;;;;;;28.18;52.62;99627.06;5051436;28;20056;-83
2023/08/19 07:33:49;;;;;;;5.97;3.13;;;;;;;28.22;53.09;99622.91;5050932;28;20052;-84
2023/08/19 07:36:15;;;;;;;4.75;2.78;;;;;;;28.26;52.50;99626.09;5050507;28;20140;-83
2023/08/19 07:38:42;;;;;;;5.03;2.80;;;;;;;28.31;52.36;99633.56;5050453;28;20064;-85
2023/08/19 07:41:08;;;;;;;4.15;2.60;;;;;;;28.34;52.81;99631.28;5049508;28;20080;-85
2023/08/19 07:43:35;;;;;;;4.43;2.85;;;;;;;28.38;53.22;99625.44;5051099;28;20854;-85
2023/08/19 07:46:01;;;;;;;4.15;2.60;;;;;;;28.43;53.42;99626.50;5051650;28;20103;-85
2023/08/19 07:48:28;;;;;;;4.28;2.47;;;;;;;28.46;53.55;99623.38;5050536;28;20084;-85
2023/08/19 07:50:54;;;;;;;3.42;2.40;;;;;;;28.49;52.81;99617.53;5050952;28;20055;-85
2023/08/19 07:53:21;;;;;;;8.40;2.92;;;;;;;28.56;52.31;99641.06;5052369;28;20052;-85
2023/08/19 07:55:47;;;;;;;4.25;2.60;;;;;;;28.59;52.45;99625.22;5054525;28;20071;-85
2023/08/19 07:58:14;;;;;;;3.42;2.40;;;;;;;28.66;52.37;99641.47;5055691;28;20136;-84
2023/08/19 08:00:40;;;;;;;2.95;2.35;;;;;;;28.69;51.81;99635.63;5054866;28;20486;-85
2023/08/19 08:03:07;;;;;;;4.03;2.45;;;;;;;28.77;52.56;99641.88;5054748;28;20056;-85
2023/08/19 08:05:33;;;;;;;3.35;2.45;;;;;;;28.85;52.76;99647.06;5055514;28;20057;-85
2023/08/19 08:08:00;;;;;;;2.88;2.50;;;;;;;28.90;52.36;99633.75;5055523;28;20410;-84
2023/08/19 08:10:27;;;;;;;3.83;2.80;;;;;;;28.95;51.93;99631.25;5055454;28;20060;-85
2023/08/19 08:12:53;;;;;;;3.80;2.75;;;;;;;29.03;52.00;99642.91;5055482;28;20061;-85
2023/08/19 08:15:20;;;;;;;5.88;3.00;;;;;;;29.09;51.59;99629.34;5054263;28;20132;-86
2023/08/19 08:17:46;;;;;;;3.75;2.53;;;;;;;29.16;51.60;99632.03;5055423;28;20056;-85
2023/08/19 08:20:13;;;;;;;4.05;2.70;;;;;;;29.23;51.92;99629.28;5055282;28;20055;-85
2023/08/19 08:22:40;;;;;;;2.35;2.15;;;;;;;29.29;51.64;99636.56;5054065;28;20059;-85
2023/08/19 08:25:09;;;;;;;3.50;2.50;;;;;;;29.35;51.05;99627.59;5053790;28;20077;-86
2023/08/19 08:27:35;;;;;;;2.85;2.53;;;;;;;29.42;50.91;99635.69;5053767;28;20144;-85
2023/08/19 08:30:02;;;;;;;3.30;3.00;;;;;;;29.50;51.36;99631.88;5055372;28;20049;-85
2023/08/19 08:32:29;;;;;;;5.95;2.67;;;;;;;29.57;50.71;99632.72;5054185;28;20060;-85
2023/08/19 08:34:55;;;;;;;3.58;2.30;;;;;;;29.65;50.19;99628.91;5054019;28;20049;-85
2023/08/19 08:37:22;;;;;;;5.50;2.25;;;;;;;29.73;50.89;99631.38;5053248;28;20431;-84
2023/08/19 08:39:48;;;;;;;5.28;2.70;;;;;;;29.83;49.47;99632.78;5053676;28;20487;-84
2023/08/19 08:42:15;;;;;;;5.13;2.55;;;;;;;29.89;49.58;99638.16;5053794;28;20045;-85
2023/08/19 08:44:44;;;;;;;5.97;2.67;;;;;;;29.94;49.21;99637.53;5053954;28;20404;-85
2023/08/19 08:47:12;;;;;;;3.47;2.70;;;;;;;30.01;49.45;99638.28;5052979;28;20474;-85
2023/08/19 08:49:39;;;;;;;5.60;2.72;;;;;;;30.07;49.22;99641.16;5053462;28;20136;-84
2023/08/19 08:52:06;;;;;;;3.45;2.28;;;;;;;30.12;48.49;99644.06;5053498;28;20136;-85
2023/08/19 08:54:33;;;;;;;3.30;2.75;;;;;;;30.16;48.80;99646.16;5053453;28;20056;-85
2023/08/19 08:57:02;;;;;;;5.40;2.78;;;;;;;30.21;49.33;99642.78;5053212;28;20057;-85
2023/08/19 08:59:28;;;;;;;3.50;2.30;;;;;;;30.26;48.96;99639.38;5053583;28;20052;-85
2023/08/19 09:01:57;;;;;;;5.63;2.45;;;;;;;30.30;49.31;99646.03;5054734;28;20431;-85
2023/08/19 09:04:28;;;;;;;5.40;2.50;;;;;;;30.34;48.89;99644.53;5053109;28;20052;-84
2023/08/19 09:07:08;;;;;;;5.25;2.67;;;;;;;30.35;48.67;99648.91;5054316;28;20056;-85
2023/08/19 09:09:36;;;;;;;3.35;2.67;;;;;;;30.41;48.59;99653.47;5052847;28;20063;-86
2023/08/19 09:12:10;;;;;;;3.60;2.92;;;;;;;30.40;47.86;99659.97;5053693;28;20131;-84
2023/08/19 09:14:50;;;;;;;2.90;2.47;;;;;;;30.35;48.24;99656.25;5053298;28;20051;-84
2023/08/19 09:17:17;;;;;;;6.28;2.92;;;;;;;30.37;48.45;99645.97;5054887;28;20048;-85
2023/08/19 09:19:43;;;;;;;3.75;2.95;;;;;;;30.35;48.43;99645.38;5052692;28;20087;-84
2023/08/19 09:22:16;;;;;;;7.13;2.75;;;;;;;30.32;47.76;99643.94;5054433;28;20075;-85
2023/08/19 09:24:44;;;;;;;4.07;2.60;;;;;;;30.29;48.15;99642.50;5053414;28;20053;-84
2023/08/19 09:27:11;;;;;;;3.10;2.65;;;;;;;30.27;48.26;99641.88;5053926;28;20076;-85
2023/08/19 09:29:49;;;;;;;6.88;2.58;;;;;;;30.24;48.65;99649.66;5052920;28;20063;-85
2023/08/19 09:32:25;;;;;;;6.88;2.63;;;;;;;30.29;48.73;99649.81;5052918;28;20135;-84
2023/08/19 09:35:08;;;;;;;5.10;2.75;;;;;;;30.28;48.95;99640.81;5054189;28;20055;-84
2023/08/19 09:37:36;;;;;;;3.88;2.90;;;;;;;30.35;48.26;99637.25;5052807;28;20103;-85
2023/08/19 09:40:08;;;;;;;3.08;2.70;;;;;;;30.39;48.52;99633.84;5053971;28;20049;-84
2023/08/19 09:42:37;;;;;;;5.23;2.33;;;;;;;30.44;48.51;99627.75;5052798;28;20063;-85
2023/08/19 09:45:05;;;;;;;7.30;2.67;;;;;;;30.50;48.18;99640.44;5053844;28;20141;-85
2023/08/19 09:47:45;;;;;;;6.10;3.20;;;;;;;30.48;48.54;99631.69;5052496;28;20049;-85
2023/08/19 09:50:12;;;;;;;5.88;2.80;;;;;;;30.55;47.95;99643.34;5052277;28;20056;-85
2023/08/19 09:52:38;;;;;;;5.65;3.08;;;;;;;30.59;48.38;99651.88;5054010;28;20076;-85
2023/08/19 09:55:05;;;;;;;3.50;2.58;;;;;;;30.63;48.87;99652.25;5052384;28;20083;-85
2023/08/19 09:57:33;;;;;;;4.50;3.00;;;;;;;30.68;48.56;99649.69;5053883;28;20075;-84
2023/08/19 10:00:01;;;;;;;3.70;2.70;;;;;;;30.74;49.03;99648.84;5053307;28;20551;-84
2023/08/19 10:02:28;;;;;;;3.75;2.70;;;;;;;30.83;49.04;99652.06;5051752;28;20481;-85
2023/08/19 10:04:56;;;;;;;3.17;2.85;;;;;;;30.91;48.80;99649.06;5032447;28;20081;-85
2023/08/19 10:07:30;;;;;;;2.97;2.50;;;;;;;30.99;48.69;99644.41;5032112;28;20049;-84
2023/08/19 10:10:00;;;;;;;5.20;2.70;;;;;;;31.10;47.97;99651.81;5032422;28;20054;-85
2023/08/19 10:12:28;;;;;;;3.80;2.92;;;;;;;31.18;48.01;99647.94;5045244;28;20491;-84
2023/08/19 10:14:57;;;;;;;3.70;2.92;;;;;;;31.24;47.91;99649.75;5051634;28;20059;-85
2023/08/19 10:17:27;;;;;;;4.20;2.50;;;;;;;31.32;47.32;99652.19;5050908;28;20114;-85
2023/08/19 10:20:02;;;;;;;3.47;2.67;;;;;;;31.37;47.58;99645.25;5042807;28;20045;-84
2023/08/19 10:22:31;;;;;;;3.85;2.80;;;;;;;31.46;47.27;99649.31;5052807;28;20040;-84
2023/08/19 10:24:59;;;;;;;4.60;2.58;;;;;;;31.53;47.35;99646.50;5051308;28;20122;-84
2023/08/19 10:27:26;;;;;;;5.70;3.05;;;;;;;31.57;47.39;99659.41;5050887;28;20103;-84
2023/08/19 10:29:56;;;;;;;6.47;2.83;;;;;;;31.61;47.03;99656.25;5052611;28;20048;-83
2023/08/19 10:32:31;;;;;;;9.43;3.55;;;;;;;31.62;46.85;99652.47;5052465;28;20049;-83
2023/08/19 10:35:12;;;;;;;5.07;2.65;;;;;;;31.63;46.96;99663.13;5052438;28;20470;-83
2023/08/19 10:37:43;;;;;;;4.70;2.80;;;;;;;31.62;46.64;99660.63;5050584;28;20056;-84
2023/08/19 10:40:17;;;;;;;7.47;3.10;;;;;;;31.58;46.75;99671.97;5052298;28;20106;-83
2023/08/19 10:42:55;;;;;;;5.20;2.53;;;;;;;31.53;46.77;99668.25;5053175;28;20067;-83
2023/08/19 10:45:21;;;;;;;5.93;3.13;;;;;;;31.52;47.36;99674.75;5051770;28;20049;-83
2023/08/19 10:47:50;;;;;;;4.38;2.92;;;;;;;31.45;47.31;99677.56;5052754;28;20607;-83
2023/08/19 10:50:18;;;;;;;3.55;2.50;;;;;;;31.42;47.48;99680.72;5053231;28;20044;-84
2023/08/19 10:53:01;;;;;;;8.65;2.90;;;;;;;31.34;47.35;99681.88;5053630;28;20508;-83
2023/08/19 10:55:28;;;;;;;4.15;2.97;;;;;;;31.37;47.34;99678.72;5052920;28;20075;-83
2023/08/19 10:57:56;;;;;;;8.23;3.17;;;;;;;31.35;47.69;99682.72;5053078;28;20053;-84
2023/08/19 11:00:30;;;;;;;4.22;2.72;;;;;;;31.36;47.65;99685.22;5052522;28;20053;-85
2023/08/19 11:02:57;;;;;;;3.08;2.60;;;;;;;31.36;47.76;99684.38;5052163;28;20067;-84
2023/08/19 11:05:27;;;;;;;3.35;2.67;;;;;;;31.37;47.77;99695.03;5052812;28;20045;-83
2023/08/19 11:07:54;;;;;;;5.00;2.92;;;;;;;31.38;47.38;99699.41;5052799;28;20091;-84
2023/08/19 11:10:21;;;;;;;5.20;2.75;;;;;;;31.39;47.40;99695.63;5051319;28;20041;-83
2023/08/19 11:12:49;;;;;;;4.00;2.95;;;;;;;31.40;47.65;99693.75;5051273;28;20059;-83
2023/08/19 11:15:23;;;;;;;8.15;3.00;;;;;;;31.39;47.44;99705.69;5052744;28;20567;-84
2023/08/19 11:17:49;;;;;;;3.13;2.83;;;;;;;31.43;47.99;99702.28;5050971;28;20085;-83
2023/08/19 11:20:16;;;;;;;5.63;3.42;;;;;;;31.47;48.38;99702.66;5050669;28;20506;-83
2023/08/19 11:22:47;;;;;;;5.88;2.72;;;;;;;31.51;47.93;99713.91;5052432;28;20056;-84
2023/08/19 11:25:14;;;;;;;10.13;3.40;;;;;;;31.57;47.71;99708.38;5052363;28;20067;-83
2023/08/19 11:27:41;;;;;;;5.93;3.00;;;;;;;31.65;48.31;99709.16;5052832;28;20100;-84
2023/08/19 11:30:10;;;;;;;4.88;3.00;;;;;;;31.74;47.70;99705.03;5056233;28;20045;-84
2023/08/19 11:32:36;;;;;;;10.48;3.72;;;;;;;31.87;47.87;99703.22;5055236;28;20138;-83
2023/08/19 11:35:04;;;;;;;5.38;3.53;;;;;;;32.01;47.72;99701.13;5054404;28;20134;-83
2023/08/19 11:37:30;;;;;;;7.68;2.90;;;;;;;32.17;48.24;99692.31;5054726;28;20092;-83
2023/08/19 11:39:57;;;;;;;4.93;2.92;;;;;;;32.34;47.74;99711.56;5056445;28;20118;-84